sensor_id;sensor_type;location;lat;lon;timestamp;P1;durP1;ratioP1;P2;durP2;ratioP2
67063;SDS011;58476;48.072;11.970;2022-07-03T00:01:14;1.80;;;1.70;;
67063;SDS011;58476;48.072;11.970;2022-07-03T00:03:39;2.17;;;1.83;;
67063;SDS011;58476;48.072;11.970;2022-07-03T00:06:04;2.40;;;1.88;;
67063;SDS011;58476;48.072;11.970;2022-07-03T00:08:30;2.35;;;1.80;;
67063;SDS011;58476;48.072;11.970;2022-07-03T00:10:55;2.63;;;1.80;;
67063;SDS011;58476;48.072;11.970;2022-07-03T00:13:21;1.90;;;1.65;;
67063;SDS011;58476;48.072;11.970;2022-07-03T00:15:46;1.90;;;1.70;;
67063;SDS011;58476;48.072;11.970;2022-07-03T00:18:11;1.90;;;1.80;;
67063;SDS011;58476;48.072;11.970;2022-07-03T00:20:38;2.58;;;1.83;;
67063;SDS011;58476;48.072;11.970;2022-07-03T00:23:10;2.60;;;1.77;;
67063;SDS011;58476;48.072;11.970;2022-07-03T00:25:39;1.90;;;1.70;;
67063;SDS011;58476;48.072;11.970;2022-07-03T00:28:06;2.35;;;1.70;;
67063;SDS011;58476;48.072;11.970;2022-07-03T00:30:32;1.90;;;1.60;;
67063;SDS011;58476;48.072;11.970;2022-07-03T00:32:59;2.42;;;1.58;;
67063;SDS011;58476;48.072;11.970;2022-07-03T00:35:26;2.03;;;1.75;;
67063;SDS011;58476;48.072;11.970;2022-07-03T00:37:53;2.00;;;1.73;;
67063;SDS011;58476;48.072;11.970;2022-07-03T00:40:18;2.00;;;1.73;;
67063;SDS011;58476;48.072;11.970;2022-07-03T00:42:44;2.35;;;1.77;;
67063;SDS011;58476;48.072;11.970;2022-07-03T00:45:14;1.80;;;1.70;;
67063;SDS011;58476;48.072;11.970;2022-07-03T00:47:43;1.87;;;1.73;;
67063;SDS011;58476;48.072;11.970;2022-07-03T00:50:09;2.58;;;2.00;;
67063;SDS011;58476;48.072;11.970;2022-07-03T00:52:35;3.28;;;2.10;;
67063;SDS011;58476;48.072;11.970;2022-07-03T00:55:02;3.28;;;1.90;;
67063;SDS011;58476;48.072;11.970;2022-07-03T00:59:59;2.38;;;1.83;;
67063;SDS011;58476;48.072;11.970;2022-07-03T01:05:08;3.15;;;1.92;;
67063;SDS011;58476;48.072;11.970;2022-07-03T01:07:47;2.17;;;2.00;;
67063;SDS011;58476;48.072;11.970;2022-07-03T01:13:17;2.30;;;2.10;;
67063;SDS011;58476;48.072;11.970;2022-07-03T01:20:42;5.25;;;1.92;;
67063;SDS011;58476;48.072;11.970;2022-07-03T01:23:18;2.72;;;2.00;;
67063;SDS011;58476;48.072;11.970;2022-07-03T01:25:49;2.17;;;1.92;;
67063;SDS011;58476;48.072;11.970;2022-07-03T01:28:16;3.35;;;1.80;;
67063;SDS011;58476;48.072;11.970;2022-07-03T01:33:16;2.45;;;1.88;;
67063;SDS011;58476;48.072;11.970;2022-07-03T01:38:37;3.65;;;2.10;;
67063;SDS011;58476;48.072;11.970;2022-07-03T01:41:05;2.50;;;2.03;;
67063;SDS011;58476;48.072;11.970;2022-07-03T01:43:32;2.80;;;1.90;;
67063;SDS011;58476;48.072;11.970;2022-07-03T01:46:00;2.50;;;1.90;;
67063;SDS011;58476;48.072;11.970;2022-07-03T01:48:27;3.28;;;1.80;;
67063;SDS011;58476;48.072;11.970;2022-07-03T01:50:58;2.15;;;1.80;;
67063;SDS011;58476;48.072;11.970;2022-07-03T01:53:27;1.95;;;1.75;;
67063;SDS011;58476;48.072;11.970;2022-07-03T01:55:57;3.28;;;1.80;;
67063;SDS011;58476;48.072;11.970;2022-07-03T01:58:24;3.63;;;2.00;;
67063;SDS011;58476;48.072;11.970;2022-07-03T02:00:52;1.98;;;1.67;;
67063;SDS011;58476;48.072;11.970;2022-07-03T02:03:26;2.13;;;1.90;;
67063;SDS011;58476;48.072;11.970;2022-07-03T02:06:04;1.92;;;1.67;;
67063;SDS011;58476;48.072;11.970;2022-07-03T02:08:48;2.28;;;1.70;;
67063;SDS011;58476;48.072;11.970;2022-07-03T02:11:23;2.17;;;1.80;;
67063;SDS011;58476;48.072;11.970;2022-07-03T02:16:38;1.88;;;1.65;;
67063;SDS011;58476;48.072;11.970;2022-07-03T02:19:30;2.10;;;1.90;;
67063;SDS011;58476;48.072;11.970;2022-07-03T02:22:03;3.55;;;1.88;;
67063;SDS011;58476;48.072;11.970;2022-07-03T02:24:33;2.35;;;2.00;;
67063;SDS011;58476;48.072;11.970;2022-07-03T02:27:09;1.90;;;1.75;;
67063;SDS011;58476;48.072;11.970;2022-07-03T02:29:46;2.10;;;1.77;;
67063;SDS011;58476;48.072;11.970;2022-07-03T02:32:20;2.70;;;2.00;;
67063;SDS011;58476;48.072;11.970;2022-07-03T02:34:55;2.17;;;1.65;;
67063;SDS011;58476;48.072;11.970;2022-07-03T02:37:27;2.20;;;1.90;;
67063;SDS011;58476;48.072;11.970;2022-07-03T02:43:08;1.83;;;1.63;;
67063;SDS011;58476;48.072;11.970;2022-07-03T02:48:19;2.10;;;1.70;;
67063;SDS011;58476;48.072;11.970;2022-07-03T02:50:52;1.65;;;1.55;;
67063;SDS011;58476;48.072;11.970;2022-07-03T02:53:25;1.95;;;1.80;;
67063;SDS011;58476;48.072;11.970;2022-07-03T02:56:03;1.92;;;1.67;;
67063;SDS011;58476;48.072;11.970;2022-07-03T02:58:40;1.83;;;1.70;;
67063;SDS011;58476;48.072;11.970;2022-07-03T03:01:22;1.92;;;1.80;;
67063;SDS011;58476;48.072;11.970;2022-07-03T03:04:44;2.50;;;1.80;;
67063;SDS011;58476;48.072;11.970;2022-07-03T03:06:55;1.88;;;1.67;;
67063;SDS011;58476;48.072;11.970;2022-07-03T03:09:29;2.78;;;1.90;;
67063;SDS011;58476;48.072;11.970;2022-07-03T03:12:00;3.05;;;1.70;;
67063;SDS011;58476;48.072;11.970;2022-07-03T03:14:28;2.60;;;1.80;;
67063;SDS011;58476;48.072;11.970;2022-07-03T03:17:03;3.53;;;1.80;;
67063;SDS011;58476;48.072;11.970;2022-07-03T03:19:30;2.17;;;1.90;;
67063;SDS011;58476;48.072;11.970;2022-07-03T03:22:28;2.90;;;1.90;;
67063;SDS011;58476;48.072;11.970;2022-07-03T03:27:27;2.08;;;1.88;;
67063;SDS011;58476;48.072;11.970;2022-07-03T03:29:53;2.30;;;1.88;;
67063;SDS011;58476;48.072;11.970;2022-07-03T03:32:19;1.70;;;1.60;;
67063;SDS011;58476;48.072;11.970;2022-07-03T03:34:46;1.90;;;1.70;;
67063;SDS011;58476;48.072;11.970;2022-07-03T03:37:12;2.42;;;1.70;;
67063;SDS011;58476;48.072;11.970;2022-07-03T03:39:37;1.83;;;1.70;;
67063;SDS011;58476;48.072;11.970;2022-07-03T03:42:03;2.55;;;1.80;;
67063;SDS011;58476;48.072;11.970;2022-07-03T03:44:29;1.95;;;1.80;;
67063;SDS011;58476;48.072;11.970;2022-07-03T03:46:55;1.90;;;1.80;;
67063;SDS011;58476;48.072;11.970;2022-07-03T03:49:20;2.00;;;1.80;;
67063;SDS011;58476;48.072;11.970;2022-07-03T03:51:46;2.53;;;1.92;;
67063;SDS011;58476;48.072;11.970;2022-07-03T03:54:11;2.10;;;1.90;;
67063;SDS011;58476;48.072;11.970;2022-07-03T03:56:36;2.42;;;2.00;;
67063;SDS011;58476;48.072;11.970;2022-07-03T03:59:02;1.70;;;1.60;;
67063;SDS011;58476;48.072;11.970;2022-07-03T04:01:27;1.73;;;1.60;;
67063;SDS011;58476;48.072;11.970;2022-07-03T04:03:53;3.10;;;1.85;;
67063;SDS011;58476;48.072;11.970;2022-07-03T04:06:18;2.10;;;1.88;;
67063;SDS011;58476;48.072;11.970;2022-07-03T04:08:44;1.83;;;1.73;;
67063;SDS011;58476;48.072;11.970;2022-07-03T04:11:10;4.05;;;1.88;;
67063;SDS011;58476;48.072;11.970;2022-07-03T04:13:35;1.70;;;1.60;;
67063;SDS011;58476;48.072;11.970;2022-07-03T04:16:00;1.80;;;1.70;;
67063;SDS011;58476;48.072;11.970;2022-07-03T04:18:26;2.10;;;1.90;;
67063;SDS011;58476;48.072;11.970;2022-07-03T04:20:51;2.10;;;1.90;;
67063;SDS011;58476;48.072;11.970;2022-07-03T04:23:16;2.55;;;1.90;;
67063;SDS011;58476;48.072;11.970;2022-07-03T04:25:42;1.65;;;1.55;;
67063;SDS011;58476;48.072;11.970;2022-07-03T04:28:07;1.95;;;1.75;;
67063;SDS011;58476;48.072;11.970;2022-07-03T04:30:33;1.70;;;1.60;;
67063;SDS011;58476;48.072;11.970;2022-07-03T04:32:59;2.35;;;1.65;;
67063;SDS011;58476;48.072;11.970;2022-07-03T04:35:24;2.03;;;1.80;;
67063;SDS011;58476;48.072;11.970;2022-07-03T04:37:50;2.35;;;1.85;;
67063;SDS011;58476;48.072;11.970;2022-07-03T04:40:15;2.47;;;1.90;;
67063;SDS011;58476;48.072;11.970;2022-07-03T04:42:40;2.08;;;1.80;;
67063;SDS011;58476;48.072;11.970;2022-07-03T04:45:06;2.00;;;1.80;;
67063;SDS011;58476;48.072;11.970;2022-07-03T04:47:32;3.25;;;1.70;;
67063;SDS011;58476;48.072;11.970;2022-07-03T04:49:57;2.00;;;1.80;;
67063;SDS011;58476;48.072;11.970;2022-07-03T04:52:22;1.88;;;1.58;;
67063;SDS011;58476;48.072;11.970;2022-07-03T04:54:48;2.05;;;1.80;;
67063;SDS011;58476;48.072;11.970;2022-07-03T04:57:13;1.73;;;1.63;;
67063;SDS011;58476;48.072;11.970;2022-07-03T04:59:39;1.60;;;1.50;;
67063;SDS011;58476;48.072;11.970;2022-07-03T05:02:04;2.00;;;1.80;;
67063;SDS011;58476;48.072;11.970;2022-07-03T05:04:29;2.25;;;1.90;;
67063;SDS011;58476;48.072;11.970;2022-07-03T05:06:55;2.30;;;1.85;;
67063;SDS011;58476;48.072;11.970;2022-07-03T05:09:20;7.00;;;2.03;;
67063;SDS011;58476;48.072;11.970;2022-07-03T05:11:46;2.17;;;1.80;;
67063;SDS011;58476;48.072;11.970;2022-07-03T05:14:11;1.77;;;1.60;;
67063;SDS011;58476;48.072;11.970;2022-07-03T05:16:36;2.25;;;1.67;;
67063;SDS011;58476;48.072;11.970;2022-07-03T05:19:02;3.28;;;1.83;;
67063;SDS011;58476;48.072;11.970;2022-07-03T05:21:27;1.83;;;1.60;;
67063;SDS011;58476;48.072;11.970;2022-07-03T05:23:53;1.70;;;1.60;;
67063;SDS011;58476;48.072;11.970;2022-07-03T05:26:18;1.95;;;1.60;;
67063;SDS011;58476;48.072;11.970;2022-07-03T05:28:44;3.33;;;2.08;;
67063;SDS011;58476;48.072;11.970;2022-07-03T05:31:09;1.80;;;1.50;;
67063;SDS011;58476;48.072;11.970;2022-07-03T05:33:35;1.65;;;1.55;;
67063;SDS011;58476;48.072;11.970;2022-07-03T05:36:00;4.43;;;1.70;;
67063;SDS011;58476;48.072;11.970;2022-07-03T05:38:26;2.85;;;1.67;;
67063;SDS011;58476;48.072;11.970;2022-07-03T05:40:51;1.95;;;1.80;;
67063;SDS011;58476;48.072;11.970;2022-07-03T05:43:17;2.15;;;1.85;;
67063;SDS011;58476;48.072;11.970;2022-07-03T05:45:42;2.00;;;1.60;;
67063;SDS011;58476;48.072;11.970;2022-07-03T05:48:07;4.82;;;1.77;;
67063;SDS011;58476;48.072;11.970;2022-07-03T05:50:32;4.55;;;2.25;;
67063;SDS011;58476;48.072;11.970;2022-07-03T05:52:58;2.90;;;1.90;;
67063;SDS011;58476;48.072;11.970;2022-07-03T05:55:23;3.35;;;2.15;;
67063;SDS011;58476;48.072;11.970;2022-07-03T05:57:48;3.30;;;1.90;;
67063;SDS011;58476;48.072;11.970;2022-07-03T06:00:14;2.75;;;1.98;;
67063;SDS011;58476;48.072;11.970;2022-07-03T06:02:39;4.53;;;1.98;;
67063;SDS011;58476;48.072;11.970;2022-07-03T06:05:04;3.35;;;2.28;;
67063;SDS011;58476;48.072;11.970;2022-07-03T06:07:30;3.00;;;2.00;;
67063;SDS011;58476;48.072;11.970;2022-07-03T06:09:55;3.95;;;1.98;;
67063;SDS011;58476;48.072;11.970;2022-07-03T06:12:21;2.45;;;1.92;;
67063;SDS011;58476;48.072;11.970;2022-07-03T06:14:46;4.65;;;2.00;;
67063;SDS011;58476;48.072;11.970;2022-07-03T06:17:11;3.00;;;2.10;;
67063;SDS011;58476;48.072;11.970;2022-07-03T06:19:37;2.80;;;2.13;;
67063;SDS011;58476;48.072;11.970;2022-07-03T06:22:02;3.45;;;2.20;;
67063;SDS011;58476;48.072;11.970;2022-07-03T06:24:27;2.58;;;2.08;;
67063;SDS011;58476;48.072;11.970;2022-07-03T06:26:53;5.55;;;1.90;;
67063;SDS011;58476;48.072;11.970;2022-07-03T06:29:18;4.38;;;2.30;;
67063;SDS011;58476;48.072;11.970;2022-07-03T06:31:43;4.80;;;1.90;;
67063;SDS011;58476;48.072;11.970;2022-07-03T06:34:09;3.25;;;1.90;;
67063;SDS011;58476;48.072;11.970;2022-07-03T06:36:34;2.63;;;2.05;;
67063;SDS011;58476;48.072;11.970;2022-07-03T06:38:59;4.65;;;1.98;;
67063;SDS011;58476;48.072;11.970;2022-07-03T06:41:25;2.50;;;2.00;;
67063;SDS011;58476;48.072;11.970;2022-07-03T06:43:50;4.53;;;2.00;;
67063;SDS011;58476;48.072;11.970;2022-07-03T06:46:15;3.60;;;2.05;;
67063;SDS011;58476;48.072;11.970;2022-07-03T06:48:41;4.28;;;2.10;;
67063;SDS011;58476;48.072;11.970;2022-07-03T06:51:06;6.43;;;2.13;;
67063;SDS011;58476;48.072;11.970;2022-07-03T06:53:31;4.47;;;2.17;;
67063;SDS011;58476;48.072;11.970;2022-07-03T06:55:57;8.40;;;2.10;;
67063;SDS011;58476;48.072;11.970;2022-07-03T06:58:22;6.50;;;2.20;;
67063;SDS011;58476;48.072;11.970;2022-07-03T07:00:47;4.75;;;2.28;;
67063;SDS011;58476;48.072;11.970;2022-07-03T07:03:13;5.05;;;2.25;;
67063;SDS011;58476;48.072;11.970;2022-07-03T07:05:38;4.65;;;2.60;;
67063;SDS011;58476;48.072;11.970;2022-07-03T07:08:04;5.35;;;2.40;;
67063;SDS011;58476;48.072;11.970;2022-07-03T07:10:29;3.15;;;2.10;;
67063;SDS011;58476;48.072;11.970;2022-07-03T07:12:54;3.33;;;1.67;;
67063;SDS011;58476;48.072;11.970;2022-07-03T07:15:20;3.88;;;2.00;;
67063;SDS011;58476;48.072;11.970;2022-07-03T07:17:45;6.57;;;2.30;;
67063;SDS011;58476;48.072;11.970;2022-07-03T07:20:10;4.45;;;1.98;;
67063;SDS011;58476;48.072;11.970;2022-07-03T07:22:36;5.80;;;2.20;;
67063;SDS011;58476;48.072;11.970;2022-07-03T07:25:01;5.03;;;2.25;;
67063;SDS011;58476;48.072;11.970;2022-07-03T07:27:27;4.72;;;1.90;;
67063;SDS011;58476;48.072;11.970;2022-07-03T07:29:52;2.72;;;2.25;;
67063;SDS011;58476;48.072;11.970;2022-07-03T07:32:17;2.78;;;1.83;;
67063;SDS011;58476;48.072;11.970;2022-07-03T07:34:43;2.00;;;1.80;;
67063;SDS011;58476;48.072;11.970;2022-07-03T07:37:08;2.53;;;1.70;;
67063;SDS011;58476;48.072;11.970;2022-07-03T07:39:33;1.70;;;1.60;;
67063;SDS011;58476;48.072;11.970;2022-07-03T07:41:59;2.70;;;1.63;;
67063;SDS011;58476;48.072;11.970;2022-07-03T07:44:24;2.92;;;1.80;;
67063;SDS011;58476;48.072;11.970;2022-07-03T07:46:49;7.70;;;1.90;;
67063;SDS011;58476;48.072;11.970;2022-07-03T07:49:15;4.43;;;2.10;;
67063;SDS011;58476;48.072;11.970;2022-07-03T07:51:40;3.70;;;1.80;;
67063;SDS011;58476;48.072;11.970;2022-07-03T07:54:06;2.05;;;1.70;;
67063;SDS011;58476;48.072;11.970;2022-07-03T07:56:31;5.43;;;1.80;;
67063;SDS011;58476;48.072;11.970;2022-07-03T07:58:56;3.10;;;2.15;;
67063;SDS011;58476;48.072;11.970;2022-07-03T08:01:22;3.08;;;2.05;;
67063;SDS011;58476;48.072;11.970;2022-07-03T08:03:47;1.98;;;1.70;;
67063;SDS011;58476;48.072;11.970;2022-07-03T08:06:12;2.20;;;1.80;;
67063;SDS011;58476;48.072;11.970;2022-07-03T08:08:38;2.10;;;1.83;;
67063;SDS011;58476;48.072;11.970;2022-07-03T08:11:03;1.90;;;1.70;;
67063;SDS011;58476;48.072;11.970;2022-07-03T08:13:28;2.72;;;1.80;;
67063;SDS011;58476;48.072;11.970;2022-07-03T08:15:53;2.78;;;1.63;;
67063;SDS011;58476;48.072;11.970;2022-07-03T08:18:19;2.13;;;1.70;;
67063;SDS011;58476;48.072;11.970;2022-07-03T08:20:44;2.97;;;1.90;;
67063;SDS011;58476;48.072;11.970;2022-07-03T08:23:10;3.88;;;1.90;;
67063;SDS011;58476;48.072;11.970;2022-07-03T08:25:35;2.13;;;1.88;;
67063;SDS011;58476;48.072;11.970;2022-07-03T08:28:00;4.78;;;1.75;;
67063;SDS011;58476;48.072;11.970;2022-07-03T08:30:26;1.70;;;1.60;;
67063;SDS011;58476;48.072;11.970;2022-07-03T08:32:52;5.53;;;1.95;;
67063;SDS011;58476;48.072;11.970;2022-07-03T08:35:19;4.85;;;1.75;;
67063;SDS011;58476;48.072;11.970;2022-07-03T08:37:44;3.35;;;1.80;;
67063;SDS011;58476;48.072;11.970;2022-07-03T08:40:10;3.08;;;1.80;;
67063;SDS011;58476;48.072;11.970;2022-07-03T08:42:42;2.03;;;1.70;;
67063;SDS011;58476;48.072;11.970;2022-07-03T08:45:14;2.00;;;1.77;;
67063;SDS011;58476;48.072;11.970;2022-07-03T08:50:14;1.90;;;1.70;;
67063;SDS011;58476;48.072;11.970;2022-07-03T08:52:40;3.47;;;1.80;;
67063;SDS011;58476;48.072;11.970;2022-07-03T08:55:07;2.75;;;1.90;;
67063;SDS011;58476;48.072;11.970;2022-07-03T08:57:33;5.13;;;2.00;;
67063;SDS011;58476;48.072;11.970;2022-07-03T09:00:02;2.00;;;1.80;;
67063;SDS011;58476;48.072;11.970;2022-07-03T09:02:32;2.60;;;1.95;;
67063;SDS011;58476;48.072;11.970;2022-07-03T09:04:58;4.70;;;1.90;;
67063;SDS011;58476;48.072;11.970;2022-07-03T09:07:27;4.25;;;1.92;;
67063;SDS011;58476;48.072;11.970;2022-07-03T09:09:57;3.92;;;2.00;;
67063;SDS011;58476;48.072;11.970;2022-07-03T09:12:23;2.03;;;1.80;;
67063;SDS011;58476;48.072;11.970;2022-07-03T09:14:49;3.83;;;1.80;;
67063;SDS011;58476;48.072;11.970;2022-07-03T09:17:15;1.70;;;1.60;;
67063;SDS011;58476;48.072;11.970;2022-07-03T09:22:22;4.15;;;1.70;;
67063;SDS011;58476;48.072;11.970;2022-07-03T09:24:53;6.50;;;1.60;;
67063;SDS011;58476;48.072;11.970;2022-07-03T09:27:36;2.53;;;1.77;;
67063;SDS011;58476;48.072;11.970;2022-07-03T09:30:07;2.70;;;1.52;;
67063;SDS011;58476;48.072;11.970;2022-07-03T09:40:17;3.35;;;1.52;;
67063;SDS011;58476;48.072;11.970;2022-07-03T09:48:21;2.67;;;1.85;;
67063;SDS011;58476;48.072;11.970;2022-07-03T09:50:46;4.22;;;1.70;;
67063;SDS011;58476;48.072;11.970;2022-07-03T09:53:11;3.25;;;1.60;;
67063;SDS011;58476;48.072;11.970;2022-07-03T09:55:37;3.33;;;1.58;;
67063;SDS011;58476;48.072;11.970;2022-07-03T09:58:02;4.22;;;2.05;;
67063;SDS011;58476;48.072;11.970;2022-07-03T10:00:34;7.50;;;2.28;;
67063;SDS011;58476;48.072;11.970;2022-07-03T10:05:30;5.32;;;1.98;;
67063;SDS011;58476;48.072;11.970;2022-07-03T10:10:24;6.00;;;2.50;;
67063;SDS011;58476;48.072;11.970;2022-07-03T10:12:52;8.30;;;2.70;;
67063;SDS011;58476;48.072;11.970;2022-07-03T10:15:18;7.25;;;2.65;;
67063;SDS011;58476;48.072;11.970;2022-07-03T10:17:49;5.25;;;2.20;;
67063;SDS011;58476;48.072;11.970;2022-07-03T10:20:19;10.32;;;1.88;;
67063;SDS011;58476;48.072;11.970;2022-07-03T10:22:49;3.00;;;1.90;;
67063;SDS011;58476;48.072;11.970;2022-07-03T10:25:15;2.65;;;1.65;;
67063;SDS011;58476;48.072;11.970;2022-07-03T10:27:42;3.95;;;2.20;;
67063;SDS011;58476;48.072;11.970;2022-07-03T10:30:09;7.00;;;1.90;;
67063;SDS011;58476;48.072;11.970;2022-07-03T10:32:35;7.03;;;1.77;;
67063;SDS011;58476;48.072;11.970;2022-07-03T10:35:02;4.82;;;1.60;;
67063;SDS011;58476;48.072;11.970;2022-07-03T10:37:30;2.85;;;2.00;;
67063;SDS011;58476;48.072;11.970;2022-07-03T10:40:07;5.93;;;1.67;;
67063;SDS011;58476;48.072;11.970;2022-07-03T10:42:38;3.38;;;1.60;;
67063;SDS011;58476;48.072;11.970;2022-07-03T10:45:15;5.45;;;1.63;;
67063;SDS011;58476;48.072;11.970;2022-07-03T10:47:49;6.50;;;1.70;;
67063;SDS011;58476;48.072;11.970;2022-07-03T10:52:44;5.87;;;1.83;;
67063;SDS011;58476;48.072;11.970;2022-07-03T10:55:10;3.35;;;1.50;;
67063;SDS011;58476;48.072;11.970;2022-07-03T10:57:37;3.35;;;1.50;;
67063;SDS011;58476;48.072;11.970;2022-07-03T11:00:05;4.68;;;1.40;;
67063;SDS011;58476;48.072;11.970;2022-07-03T11:02:34;5.10;;;1.77;;
67063;SDS011;58476;48.072;11.970;2022-07-03T11:05:03;4.75;;;1.48;;
67063;SDS011;58476;48.072;11.970;2022-07-03T11:07:29;3.03;;;1.55;;
67063;SDS011;58476;48.072;11.970;2022-07-03T11:20:30;5.35;;;1.70;;
67063;SDS011;58476;48.072;11.970;2022-07-03T11:23:07;2.72;;;1.67;;
67063;SDS011;58476;48.072;11.970;2022-07-03T11:25:49;4.97;;;1.60;;
67063;SDS011;58476;48.072;11.970;2022-07-03T11:33:44;1.42;;;1.27;;
67063;SDS011;58476;48.072;11.970;2022-07-03T11:38:41;3.40;;;1.60;;
67063;SDS011;58476;48.072;11.970;2022-07-03T11:41:11;4.88;;;1.92;;
67063;SDS011;58476;48.072;11.970;2022-07-03T11:43:46;2.60;;;1.45;;
67063;SDS011;58476;48.072;11.970;2022-07-03T11:46:15;1.48;;;1.38;;
67063;SDS011;58476;48.072;11.970;2022-07-03T11:48:42;1.52;;;1.35;;
67063;SDS011;58476;48.072;11.970;2022-07-03T11:51:08;3.40;;;1.40;;
67063;SDS011;58476;48.072;11.970;2022-07-03T11:53:34;1.95;;;1.58;;
67063;SDS011;58476;48.072;11.970;2022-07-03T11:56:11;1.60;;;1.50;;
67063;SDS011;58476;48.072;11.970;2022-07-03T12:03:46;3.63;;;1.55;;
67063;SDS011;58476;48.072;11.970;2022-07-03T12:06:11;1.70;;;1.48;;
67063;SDS011;58476;48.072;11.970;2022-07-03T12:08:37;2.40;;;1.50;;
67063;SDS011;58476;48.072;11.970;2022-07-03T12:11:03;3.25;;;1.60;;
67063;SDS011;58476;48.072;11.970;2022-07-03T12:13:32;9.32;;;1.50;;
67063;SDS011;58476;48.072;11.970;2022-07-03T12:16:01;1.83;;;1.40;;
67063;SDS011;58476;48.072;11.970;2022-07-03T12:18:47;1.50;;;1.40;;
67063;SDS011;58476;48.072;11.970;2022-07-03T12:21:13;1.50;;;1.40;;
67063;SDS011;58476;48.072;11.970;2022-07-03T12:26:26;3.65;;;1.38;;
67063;SDS011;58476;48.072;11.970;2022-07-03T12:28:52;6.20;;;1.70;;
67063;SDS011;58476;48.072;11.970;2022-07-03T12:31:18;3.42;;;1.70;;
67063;SDS011;58476;48.072;11.970;2022-07-03T12:33:43;3.95;;;1.50;;
67063;SDS011;58476;48.072;11.970;2022-07-03T12:36:09;4.47;;;1.50;;
67063;SDS011;58476;48.072;11.970;2022-07-03T12:38:37;10.75;;;3.00;;
67063;SDS011;58476;48.072;11.970;2022-07-03T12:41:07;6.53;;;1.60;;
67063;SDS011;58476;48.072;11.970;2022-07-03T12:43:39;3.67;;;1.67;;
67063;SDS011;58476;48.072;11.970;2022-07-03T12:46:15;9.30;;;1.45;;
67063;SDS011;58476;48.072;11.970;2022-07-03T12:48:49;2.03;;;1.70;;
67063;SDS011;58476;48.072;11.970;2022-07-03T12:51:16;3.65;;;1.70;;
67063;SDS011;58476;48.072;11.970;2022-07-03T12:54:00;3.78;;;1.50;;
67063;SDS011;58476;48.072;11.970;2022-07-03T12:56:25;3.97;;;1.50;;
67063;SDS011;58476;48.072;11.970;2022-07-03T12:58:51;4.55;;;1.50;;
67063;SDS011;58476;48.072;11.970;2022-07-03T13:03:50;2.78;;;1.45;;
67063;SDS011;58476;48.072;11.970;2022-07-03T13:06:16;3.50;;;1.48;;
67063;SDS011;58476;48.072;11.970;2022-07-03T13:08:57;3.10;;;1.40;;
67063;SDS011;58476;48.072;11.970;2022-07-03T13:13:52;4.55;;;1.50;;
67063;SDS011;58476;48.072;11.970;2022-07-03T13:16:24;4.88;;;1.50;;
67063;SDS011;58476;48.072;11.970;2022-07-03T13:18:57;2.72;;;1.63;;
67063;SDS011;58476;48.072;11.970;2022-07-03T13:21:25;5.88;;;1.77;;
67063;SDS011;58476;48.072;11.970;2022-07-03T13:23:51;3.08;;;1.45;;
67063;SDS011;58476;48.072;11.970;2022-07-03T13:26:17;4.53;;;1.60;;
67063;SDS011;58476;48.072;11.970;2022-07-03T13:28:42;1.77;;;1.40;;
67063;SDS011;58476;48.072;11.970;2022-07-03T13:31:07;3.30;;;1.50;;
67063;SDS011;58476;48.072;11.970;2022-07-03T13:33:33;2.80;;;1.35;;
67063;SDS011;58476;48.072;11.970;2022-07-03T13:35:58;2.45;;;1.60;;
67063;SDS011;58476;48.072;11.970;2022-07-03T13:38:23;4.50;;;1.45;;
67063;SDS011;58476;48.072;11.970;2022-07-03T13:40:49;4.68;;;1.50;;
67063;SDS011;58476;48.072;11.970;2022-07-03T13:43:14;3.05;;;1.35;;
67063;SDS011;58476;48.072;11.970;2022-07-03T13:45:39;3.67;;;1.60;;
67063;SDS011;58476;48.072;11.970;2022-07-03T13:48:05;3.85;;;1.40;;
67063;SDS011;58476;48.072;11.970;2022-07-03T13:50:30;1.33;;;1.23;;
67063;SDS011;58476;48.072;11.970;2022-07-03T13:52:55;2.05;;;1.30;;
67063;SDS011;58476;48.072;11.970;2022-07-03T13:55:21;2.25;;;1.40;;
67063;SDS011;58476;48.072;11.970;2022-07-03T13:57:46;2.00;;;1.30;;
67063;SDS011;58476;48.072;11.970;2022-07-03T14:00:12;2.65;;;1.55;;
67063;SDS011;58476;48.072;11.970;2022-07-03T14:02:37;2.03;;;1.50;;
67063;SDS011;58476;48.072;11.970;2022-07-03T14:05:03;2.05;;;1.40;;
67063;SDS011;58476;48.072;11.970;2022-07-03T14:07:28;1.40;;;1.30;;
67063;SDS011;58476;48.072;11.970;2022-07-03T14:09:53;1.50;;;1.40;;
67063;SDS011;58476;48.072;11.970;2022-07-03T14:12:19;3.55;;;1.48;;
67063;SDS011;58476;48.072;11.970;2022-07-03T14:14:44;2.90;;;1.40;;
67063;SDS011;58476;48.072;11.970;2022-07-03T14:17:10;2.58;;;1.45;;
67063;SDS011;58476;48.072;11.970;2022-07-03T14:19:35;1.95;;;1.40;;
67063;SDS011;58476;48.072;11.970;2022-07-03T14:22:01;2.20;;;1.42;;
67063;SDS011;58476;48.072;11.970;2022-07-03T14:24:26;2.95;;;1.40;;
67063;SDS011;58476;48.072;11.970;2022-07-03T14:26:51;1.98;;;1.30;;
67063;SDS011;58476;48.072;11.970;2022-07-03T14:29:17;2.25;;;1.30;;
67063;SDS011;58476;48.072;11.970;2022-07-03T14:31:42;3.38;;;1.40;;
67063;SDS011;58476;48.072;11.970;2022-07-03T14:34:07;2.42;;;1.40;;
67063;SDS011;58476;48.072;11.970;2022-07-03T14:36:33;2.60;;;1.42;;
67063;SDS011;58476;48.072;11.970;2022-07-03T14:38:59;1.45;;;1.35;;
67063;SDS011;58476;48.072;11.970;2022-07-03T14:41:24;6.78;;;1.50;;
67063;SDS011;58476;48.072;11.970;2022-07-03T14:43:49;1.58;;;1.33;;
67063;SDS011;58476;48.072;11.970;2022-07-03T14:46:14;2.78;;;1.40;;
67063;SDS011;58476;48.072;11.970;2022-07-03T14:48:40;2.88;;;1.30;;
67063;SDS011;58476;48.072;11.970;2022-07-03T14:51:05;2.28;;;1.20;;
67063;SDS011;58476;48.072;11.970;2022-07-03T14:53:30;4.07;;;1.35;;
67063;SDS011;58476;48.072;11.970;2022-07-03T14:55:56;2.67;;;1.50;;
67063;SDS011;58476;48.072;11.970;2022-07-03T14:58:24;2.30;;;1.45;;
67063;SDS011;58476;48.072;11.970;2022-07-03T15:00:52;3.88;;;1.30;;
67063;SDS011;58476;48.072;11.970;2022-07-03T15:05:59;1.60;;;1.50;;
67063;SDS011;58476;48.072;11.970;2022-07-03T15:11:27;1.50;;;1.30;;
67063;SDS011;58476;48.072;11.970;2022-07-03T15:14:07;1.70;;;1.40;;
67063;SDS011;58476;48.072;11.970;2022-07-03T15:16:33;2.10;;;1.33;;
67063;SDS011;58476;48.072;11.970;2022-07-03T15:18:59;2.08;;;1.85;;
67063;SDS011;58476;48.072;11.970;2022-07-03T15:21:25;5.22;;;1.60;;
67063;SDS011;58476;48.072;11.970;2022-07-03T15:23:54;3.63;;;1.50;;
67063;SDS011;58476;48.072;11.970;2022-07-03T15:26:21;6.45;;;1.65;;
67063;SDS011;58476;48.072;11.970;2022-07-03T15:28:48;3.00;;;1.30;;
67063;SDS011;58476;48.072;11.970;2022-07-03T15:31:14;3.28;;;1.35;;
67063;SDS011;58476;48.072;11.970;2022-07-03T15:33:40;1.58;;;1.23;;
67063;SDS011;58476;48.072;11.970;2022-07-03T15:36:06;4.40;;;1.58;;
67063;SDS011;58476;48.072;11.970;2022-07-03T15:38:37;2.95;;;1.55;;
67063;SDS011;58476;48.072;11.970;2022-07-03T15:41:06;3.83;;;1.70;;
67063;SDS011;58476;48.072;11.970;2022-07-03T15:49:30;7.40;;;1.40;;
67063;SDS011;58476;48.072;11.970;2022-07-03T15:54:57;1.85;;;1.65;;
67063;SDS011;58476;48.072;11.970;2022-07-03T15:59:59;3.80;;;1.40;;
67063;SDS011;58476;48.072;11.970;2022-07-03T16:05:34;3.50;;;1.90;;
67063;SDS011;58476;48.072;11.970;2022-07-03T16:08:02;1.65;;;1.40;;
67063;SDS011;58476;48.072;11.970;2022-07-03T16:10:31;1.97;;;1.50;;
67063;SDS011;58476;48.072;11.970;2022-07-03T16:12:57;1.80;;;1.50;;
67063;SDS011;58476;48.072;11.970;2022-07-03T16:15:23;1.98;;;1.60;;
67063;SDS011;58476;48.072;11.970;2022-07-03T16:20:20;3.20;;;1.63;;
67063;SDS011;58476;48.072;11.970;2022-07-03T16:22:46;1.70;;;1.50;;
67063;SDS011;58476;48.072;11.970;2022-07-03T16:25:13;4.65;;;2.17;;